createdAt,value
2018-12-10T00:00:30.848Z,39.63
2018-12-10T00:01:31.314Z,39.57
2018-12-10T00:02:31.775Z,39.52
2018-12-10T00:03:32.244Z,39.52
2018-12-10T00:04:32.706Z,39.50
2018-12-10T00:05:33.175Z,39.54
2018-12-10T00:06:33.637Z,39.58
2018-12-10T00:07:34.101Z,39.58
2018-12-10T00:08:34.569Z,39.59
2018-12-10T00:09:35.034Z,39.57
2018-12-10T00:10:41.547Z,39.59
2018-12-10T00:11:35.963Z,39.56
2018-12-10T00:12:36.426Z,39.53
2018-12-10T00:13:36.893Z,39.57
2018-12-10T00:14:37.408Z,39.57
2018-12-10T00:15:37.822Z,39.60
2018-12-10T00:16:38.287Z,39.57
2018-12-10T00:17:38.752Z,39.52
2018-12-10T00:18:39.217Z,39.54
2018-12-10T00:19:39.683Z,39.54
2018-12-10T00:20:40.146Z,39.57
2018-12-10T00:21:40.614Z,39.56
2018-12-10T00:22:41.075Z,39.55
2018-12-10T00:23:41.542Z,39.57
2018-12-10T00:24:42.006Z,39.59
2018-12-10T00:25:42.470Z,39.61
2018-12-10T00:26:42.936Z,39.60
2018-12-10T00:27:43.401Z,39.60
2018-12-10T00:28:43.867Z,39.60
2018-12-10T00:29:44.333Z,39.62
2018-12-10T00:30:44.796Z,39.62
2018-12-10T00:31:45.262Z,39.61
2018-12-10T00:32:45.728Z,39.62
2018-12-10T00:33:46.196Z,39.58
2018-12-10T00:34:46.655Z,39.55
2018-12-10T00:35:47.124Z,39.56
2018-12-10T00:36:47.588Z,39.56
2018-12-10T00:37:48.052Z,39.55
2018-12-10T00:38:48.514Z,39.57
2018-12-10T00:39:48.987Z,39.58
2018-12-10T00:40:49.446Z,39.61
2018-12-10T00:41:49.909Z,39.62
2018-12-10T00:42:50.373Z,39.61
2018-12-10T00:43:50.840Z,39.63
2018-12-10T00:44:51.360Z,39.63
2018-12-10T00:45:51.903Z,39.64
2018-12-10T00:46:52.233Z,39.67
2018-12-10T00:47:52.699Z,39.64
2018-12-10T00:48:53.166Z,39.67
2018-12-10T00:49:53.683Z,39.65
2018-12-10T00:50:54.097Z,39.66
2018-12-10T00:51:54.558Z,39.66
2018-12-10T00:52:55.022Z,39.67
2018-12-10T00:53:55.489Z,39.62
2018-12-10T00:54:55.953Z,39.61
2018-12-10T00:55:56.421Z,39.63
2018-12-10T00:56:56.886Z,39.61
2018-12-10T00:57:57.349Z,39.66
2018-12-10T00:58:57.810Z,39.74
2018-12-10T00:59:58.278Z,39.68
2018-12-10T01:00:58.748Z,39.65
2018-12-10T01:01:59.214Z,39.68
2018-12-10T01:02:59.670Z,39.63
2018-12-10T01:04:00.137Z,39.59
2018-12-10T01:05:00.601Z,39.61
2018-12-10T01:06:01.066Z,39.65
2018-12-10T01:07:01.531Z,39.61
2018-12-10T01:08:01.995Z,39.61
2018-12-10T01:09:02.458Z,39.60
2018-12-10T01:10:02.925Z,39.61
2018-12-10T01:11:03.390Z,39.60
2018-12-10T01:12:03.859Z,39.60
2018-12-10T01:13:04.318Z,39.65
2018-12-10T01:14:04.785Z,39.65
2018-12-10T01:15:05.299Z,39.65
2018-12-10T01:16:05.712Z,39.61
2018-12-10T01:17:06.183Z,39.62
2018-12-10T01:18:06.723Z,39.63
2018-12-10T01:19:07.107Z,39.68
2018-12-10T01:20:07.572Z,39.67
2018-12-10T01:21:08.037Z,39.66
2018-12-10T01:22:08.502Z,39.65
2018-12-10T01:23:08.969Z,39.67
2018-12-10T01:24:09.433Z,39.69
2018-12-10T01:25:09.896Z,39.67
2018-12-10T01:26:10.362Z,39.67
2018-12-10T01:27:10.826Z,39.65
2018-12-10T01:28:11.289Z,39.65
2018-12-10T01:29:11.758Z,39.65
2018-12-10T01:30:12.270Z,39.63
2018-12-10T01:31:12.685Z,39.63
2018-12-10T01:32:13.149Z,39.61
2018-12-10T01:33:13.613Z,39.62
2018-12-10T01:34:14.080Z,39.64
2018-12-10T01:35:14.603Z,39.65
2018-12-10T01:36:15.007Z,39.62
2018-12-10T01:37:15.474Z,39.63
2018-12-10T01:38:15.938Z,39.62
2018-12-10T01:39:16.403Z,39.60
2018-12-10T01:40:16.867Z,39.61
2018-12-10T01:41:17.332Z,39.66
2018-12-10T01:42:17.799Z,39.63
2018-12-10T01:43:18.262Z,39.65
2018-12-10T01:44:18.727Z,39.63
2018-12-10T01:45:19.190Z,39.69
2018-12-10T01:46:19.655Z,39.67
2018-12-10T01:47:20.227Z,39.69
2018-12-10T01:48:20.585Z,39.68
2018-12-10T01:49:21.048Z,39.65
2018-12-10T01:50:21.516Z,39.62
2018-12-10T01:51:21.977Z,39.71
2018-12-10T01:52:22.444Z,39.67
2018-12-10T01:53:22.908Z,39.66
2018-12-10T01:54:23.372Z,39.64
2018-12-10T01:55:23.837Z,39.66
2018-12-10T01:56:24.303Z,39.64
2018-12-10T01:57:24.770Z,39.66
2018-12-10T01:58:25.236Z,39.64
2018-12-10T01:59:25.702Z,39.66
2018-12-10T02:00:26.161Z,39.68
2018-12-10T02:01:26.625Z,39.64
2018-12-10T02:02:27.092Z,39.64
2018-12-10T02:03:27.557Z,39.60
2018-12-10T02:04:28.027Z,39.57
2018-12-10T02:05:28.536Z,39.60
2018-12-10T02:06:28.950Z,39.62
2018-12-10T02:07:29.415Z,39.60
2018-12-10T02:08:29.881Z,39.59
2018-12-10T02:09:30.345Z,39.61
2018-12-10T02:10:30.807Z,39.66
2018-12-10T02:11:31.273Z,39.72
2018-12-10T02:12:31.737Z,39.72
2018-12-10T02:13:32.202Z,39.69
2018-12-10T02:14:32.670Z,39.72
2018-12-10T02:15:33.130Z,39.68
2018-12-10T02:16:33.595Z,39.71
2018-12-10T02:17:34.062Z,39.71
2018-12-10T02:18:34.525Z,39.71
2018-12-10T02:19:34.994Z,39.72
2018-12-10T02:20:35.454Z,39.71
2018-12-10T02:21:35.922Z,39.77
2018-12-10T02:22:36.383Z,39.77
2018-12-10T02:23:36.847Z,39.76
2018-12-10T02:24:37.314Z,39.75
2018-12-10T02:25:37.781Z,39.75
2018-12-10T02:26:38.247Z,39.75
2018-12-10T02:27:38.709Z,39.75
2018-12-10T02:28:39.174Z,39.78
2018-12-10T02:29:39.638Z,39.71
2018-12-10T02:30:40.153Z,39.69
2018-12-10T02:31:40.568Z,39.65
2018-12-10T02:32:41.031Z,39.66
2018-12-10T02:33:41.496Z,39.66
2018-12-10T02:34:41.960Z,39.65
2018-12-10T02:35:42.428Z,39.69
2018-12-10T02:36:42.889Z,39.70
2018-12-10T02:37:43.358Z,39.71
2018-12-10T02:38:43.817Z,39.72
2018-12-10T02:39:44.286Z,39.71
2018-12-10T02:40:44.749Z,39.72
2018-12-10T02:41:45.217Z,39.70
2018-12-10T02:42:45.678Z,39.70
2018-12-10T02:43:46.142Z,39.66
2018-12-10T02:44:46.609Z,39.67
2018-12-10T02:45:47.089Z,39.68
2018-12-10T02:46:47.536Z,39.68
2018-12-10T02:47:48.005Z,39.70
2018-12-10T02:48:48.467Z,39.64
2018-12-10T02:49:48.930Z,39.66
2018-12-10T02:50:49.397Z,39.62
2018-12-10T02:51:49.858Z,39.61
2018-12-10T02:52:50.325Z,39.65
2018-12-10T02:53:50.794Z,39.68
2018-12-10T02:54:51.256Z,39.63
2018-12-10T02:55:51.903Z,39.59
2018-12-10T02:56:52.603Z,39.65
2018-12-10T02:57:52.873Z,39.67
2018-12-10T02:58:53.113Z,39.65
2018-12-10T02:59:53.685Z,39.64
2018-12-10T03:00:54.086Z,39.66
2018-12-10T03:01:54.592Z,39.64
2018-12-10T03:02:55.137Z,39.65
2018-12-10T03:03:55.440Z,39.67
2018-12-10T03:04:55.901Z,39.66
2018-12-10T03:05:56.365Z,39.68
2018-12-10T03:06:56.829Z,39.67
2018-12-10T03:07:57.293Z,39.69
2018-12-10T03:08:57.759Z,39.69
2018-12-10T03:09:58.223Z,39.73
2018-12-10T03:10:58.688Z,39.71
2018-12-10T03:11:59.151Z,39.70
2018-12-10T03:12:59.616Z,39.65
2018-12-10T03:14:00.085Z,39.67
2018-12-10T03:15:00.545Z,39.68
2018-12-10T03:16:01.009Z,39.73
2018-12-10T03:17:01.476Z,39.68
2018-12-10T03:18:01.939Z,39.67
2018-12-10T03:19:02.420Z,39.67
2018-12-10T03:20:02.866Z,39.67
2018-12-10T03:21:03.334Z,39.64
2018-12-10T03:22:03.798Z,39.63
2018-12-10T03:23:04.264Z,39.66
2018-12-10T03:24:04.727Z,39.66
2018-12-10T03:25:05.190Z,39.70
2018-12-10T03:26:05.707Z,39.66
2018-12-10T03:27:06.119Z,39.64
2018-12-10T03:28:06.588Z,39.62
2018-12-10T03:29:07.049Z,39.60
2018-12-10T03:30:07.519Z,39.59
2018-12-10T03:31:07.980Z,39.62
2018-12-10T03:32:08.448Z,39.64
2018-12-10T03:33:08.908Z,39.64
2018-12-10T03:34:09.372Z,39.62
2018-12-10T03:35:09.836Z,39.61
2018-12-10T03:36:10.303Z,39.57
2018-12-10T03:37:10.767Z,39.60
2018-12-10T03:38:11.233Z,39.61
2018-12-10T03:39:11.695Z,39.63
2018-12-10T03:40:12.159Z,39.59
2018-12-10T03:41:12.674Z,39.57
2018-12-10T03:42:13.089Z,39.58
2018-12-10T03:43:13.553Z,39.55
2018-12-10T03:44:14.019Z,39.55
2018-12-10T03:45:14.483Z,39.59
2018-12-10T03:46:14.948Z,39.60
2018-12-10T03:47:15.411Z,39.60
2018-12-10T03:48:15.876Z,39.61
2018-12-10T03:49:16.342Z,39.60
2018-12-10T03:50:16.806Z,39.61
2018-12-10T03:51:17.271Z,39.57
2018-12-10T03:52:17.734Z,39.59
2018-12-10T03:53:18.205Z,39.60
2018-12-10T03:54:18.663Z,39.63
2018-12-10T03:55:19.130Z,39.62
2018-12-10T03:56:19.592Z,39.67
2018-12-10T03:57:20.058Z,39.64
2018-12-10T03:58:20.523Z,39.62
2018-12-10T03:59:20.987Z,39.58
2018-12-10T04:00:21.453Z,39.61
2018-12-10T04:01:21.916Z,39.62
2018-12-10T04:02:22.385Z,39.65
2018-12-10T04:03:22.844Z,39.67
2018-12-10T04:04:23.308Z,39.63
2018-12-10T04:05:23.788Z,39.59
2018-12-10T04:06:24.241Z,39.60
2018-12-10T04:07:24.710Z,39.60
2018-12-10T04:08:25.165Z,39.57
2018-12-10T04:09:25.636Z,39.59
2018-12-10T04:10:26.111Z,39.59
2018-12-10T04:11:26.562Z,39.59
2018-12-10T04:12:27.025Z,39.57
2018-12-10T04:13:27.490Z,39.58
2018-12-10T04:14:27.958Z,39.59
2018-12-10T04:15:28.418Z,39.59
2018-12-10T04:16:28.882Z,39.58
2018-12-10T04:17:29.351Z,39.59
2018-12-10T04:18:29.812Z,39.61
2018-12-10T04:19:30.279Z,39.64
2018-12-10T04:20:30.742Z,39.66
2018-12-10T04:21:31.214Z,39.69
2018-12-10T04:22:31.673Z,39.68
2018-12-10T04:23:32.138Z,39.73
2018-12-10T04:24:32.598Z,39.79
2018-12-10T04:25:33.062Z,39.81
2018-12-10T04:26:33.532Z,39.85
2018-12-10T04:27:33.996Z,39.82
2018-12-10T04:28:34.460Z,39.87
2018-12-10T04:29:34.923Z,39.84
2018-12-10T04:30:35.387Z,39.83
2018-12-10T04:31:36.404Z,39.82
2018-12-10T04:32:36.320Z,39.87
2018-12-10T04:33:36.780Z,39.88
2018-12-10T04:34:37.244Z,39.87
2018-12-10T04:35:37.708Z,39.89
2018-12-10T04:36:38.221Z,39.88
2018-12-10T04:37:38.635Z,39.83
2018-12-10T04:38:39.099Z,39.84
2018-12-10T04:39:39.565Z,39.83
2018-12-10T04:40:40.029Z,39.84
2018-12-10T04:41:40.495Z,39.83
2018-12-10T04:42:40.958Z,39.83
2018-12-10T04:43:41.421Z,39.79
2018-12-10T04:44:41.885Z,39.76
2018-12-10T04:45:42.352Z,39.77
2018-12-10T04:46:42.815Z,39.76
2018-12-10T04:47:43.279Z,39.76
2018-12-10T04:48:43.745Z,39.76
2018-12-10T04:49:44.207Z,39.77
2018-12-10T04:50:44.673Z,39.76
2018-12-10T04:51:45.137Z,39.76
2018-12-10T04:52:45.598Z,39.74
2018-12-10T04:53:46.068Z,39.72
2018-12-10T04:54:46.529Z,39.71
2018-12-10T04:55:46.994Z,39.75
2018-12-10T04:56:47.507Z,39.70
2018-12-10T04:57:47.921Z,39.70
2018-12-10T04:58:48.384Z,39.71
2018-12-10T04:59:52.743Z,39.71
2018-12-10T05:00:49.313Z,39.74
2018-12-10T05:01:49.777Z,39.73
2018-12-10T05:02:50.242Z,39.72
2018-12-10T05:03:50.707Z,39.73
2018-12-10T05:04:51.174Z,39.74
2018-12-10T05:05:51.692Z,39.77
2018-12-10T05:06:52.148Z,39.75
2018-12-10T05:07:52.872Z,39.70
2018-12-10T05:08:53.475Z,39.71
2018-12-10T05:09:53.806Z,39.72
2018-12-10T05:10:54.356Z,39.73
2018-12-10T05:11:54.421Z,39.73
2018-12-10T05:12:54.883Z,39.70
2018-12-10T05:13:55.350Z,39.73
2018-12-10T05:14:55.810Z,39.73
2018-12-10T05:15:56.276Z,39.72
2018-12-10T05:16:56.740Z,39.69
2018-12-10T05:17:57.203Z,39.70
2018-12-10T05:18:57.671Z,39.74
2018-12-10T05:19:58.135Z,39.73
2018-12-10T05:20:58.597Z,39.76
2018-12-10T05:21:59.063Z,39.77
2018-12-10T05:22:59.528Z,39.73
2018-12-10T05:23:59.991Z,39.77
2018-12-10T05:25:00.457Z,39.76
2018-12-10T05:26:00.917Z,39.73
2018-12-10T05:27:01.405Z,39.70
2018-12-10T05:28:01.848Z,39.67
2018-12-10T05:29:02.312Z,39.67
2018-12-10T05:30:02.775Z,39.71
2018-12-10T05:31:03.241Z,39.68
2018-12-10T05:32:03.703Z,39.68
2018-12-10T05:33:04.171Z,39.71
2018-12-10T05:34:04.632Z,39.72
2018-12-10T05:35:05.098Z,39.68
2018-12-10T05:36:05.561Z,39.71
2018-12-10T05:37:06.024Z,39.72
2018-12-10T05:38:06.488Z,39.71
2018-12-10T05:39:06.953Z,39.68
2018-12-10T05:40:07.417Z,39.73
2018-12-10T05:41:07.884Z,39.75
2018-12-10T05:42:08.346Z,39.71
2018-12-10T05:43:08.812Z,39.69
2018-12-10T05:44:09.274Z,39.74
2018-12-10T05:45:09.739Z,39.69
2018-12-10T05:46:10.202Z,39.73
2018-12-10T05:47:10.666Z,39.67
2018-12-10T05:48:11.131Z,39.72
2018-12-10T05:49:11.596Z,39.73
2018-12-10T05:50:12.060Z,39.72
2018-12-10T05:51:12.525Z,39.76
2018-12-10T05:52:12.988Z,39.73
2018-12-10T05:53:13.450Z,39.72
2018-12-10T05:54:13.915Z,39.71
2018-12-10T05:55:14.379Z,39.75
2018-12-10T05:56:14.846Z,39.72
2018-12-10T05:57:15.361Z,39.73
2018-12-10T05:58:17.661Z,39.71
2018-12-10T05:59:16.238Z,39.73
2018-12-10T06:00:16.702Z,39.69
2018-12-10T06:01:17.166Z,39.70
2018-12-10T06:02:17.728Z,39.65
2018-12-10T06:03:19.954Z,39.63
2018-12-10T06:04:18.559Z,39.69
2018-12-10T06:05:19.022Z,39.61
2018-12-10T06:06:19.487Z,39.61
2018-12-10T06:07:19.951Z,39.62
2018-12-10T06:08:20.414Z,39.61
2018-12-10T06:09:20.878Z,39.62
2018-12-10T06:10:21.342Z,39.64
2018-12-10T06:11:21.810Z,39.65
2018-12-10T06:12:22.321Z,39.63
2018-12-10T06:13:22.736Z,39.64
2018-12-10T06:14:23.201Z,39.68
2018-12-10T06:15:23.663Z,39.68
2018-12-10T06:16:24.128Z,39.68
2018-12-10T06:17:24.596Z,39.70
2018-12-10T06:18:25.059Z,39.69
2018-12-10T06:19:25.519Z,39.68
2018-12-10T06:20:25.989Z,39.67
2018-12-10T06:21:26.446Z,39.68
2018-12-10T06:22:26.912Z,39.68
2018-12-10T06:23:27.376Z,39.70
2018-12-10T06:24:27.840Z,39.66
2018-12-10T06:25:28.302Z,39.71
2018-12-10T06:26:28.770Z,39.71
2018-12-10T06:27:29.289Z,39.71
2018-12-10T06:28:29.698Z,39.71
2018-12-10T06:29:30.159Z,39.69
2018-12-10T06:30:30.624Z,39.69
2018-12-10T06:31:31.090Z,39.71
2018-12-10T06:32:31.554Z,39.71
2018-12-10T06:33:32.015Z,39.70
2018-12-10T06:34:32.482Z,39.75
2018-12-10T06:35:32.950Z,39.74
2018-12-10T06:36:33.410Z,39.69
2018-12-10T06:37:37.555Z,39.70
2018-12-10T06:38:34.541Z,39.73
2018-12-10T06:39:34.799Z,39.71
2018-12-10T06:40:35.268Z,39.72
2018-12-10T06:41:35.727Z,39.69
2018-12-10T06:42:36.194Z,39.69
2018-12-10T06:43:36.656Z,39.70
2018-12-10T06:44:37.119Z,39.72
2018-12-10T06:45:37.585Z,39.71
2018-12-10T06:46:38.048Z,39.75
2018-12-10T06:47:38.562Z,39.74
2018-12-10T06:48:38.977Z,39.70
2018-12-10T06:49:39.440Z,39.72
2018-12-10T06:50:39.904Z,39.71
2018-12-10T06:51:40.370Z,39.72
2018-12-10T06:52:40.835Z,39.72
2018-12-10T06:53:41.294Z,39.73
2018-12-10T06:54:41.761Z,39.72
2018-12-10T06:55:42.223Z,39.72
2018-12-10T06:56:42.688Z,39.74
2018-12-10T06:57:43.154Z,39.69
2018-12-10T06:58:43.614Z,39.69
2018-12-10T06:59:44.080Z,39.69
2018-12-10T07:00:44.545Z,39.70
2018-12-10T07:01:45.009Z,39.70
2018-12-10T07:02:45.472Z,39.68
2018-12-10T07:03:45.935Z,39.73
2018-12-10T07:04:46.401Z,39.74
2018-12-10T07:05:46.870Z,39.70
2018-12-10T07:06:47.330Z,39.71
2018-12-10T07:07:47.844Z,39.72
2018-12-10T07:08:48.258Z,39.71
2018-12-10T07:09:48.721Z,39.69
2018-12-10T07:10:49.183Z,39.72
2018-12-10T07:11:49.650Z,39.77
2018-12-10T07:12:50.113Z,39.76
2018-12-10T07:13:50.575Z,39.74
2018-12-10T07:14:51.038Z,39.70
2018-12-10T07:15:51.503Z,39.72
2018-12-10T07:16:51.983Z,39.73
2018-12-10T07:17:52.507Z,39.70
2018-12-10T07:18:52.928Z,39.72
2018-12-10T07:19:53.360Z,39.76
2018-12-10T07:20:53.826Z,39.76
2018-12-10T07:21:54.301Z,39.69
2018-12-10T07:22:54.801Z,39.71
2018-12-10T07:23:55.217Z,39.77
2018-12-10T07:24:55.679Z,39.77
2018-12-10T07:25:56.143Z,39.77
2018-12-10T07:26:56.607Z,39.79
2018-12-10T07:27:57.069Z,39.77
2018-12-10T07:28:57.536Z,39.75
2018-12-10T07:29:57.997Z,39.75
2018-12-10T07:30:58.461Z,39.74
2018-12-10T07:31:58.925Z,39.75
2018-12-10T07:32:59.391Z,39.79
2018-12-10T07:33:59.854Z,39.78
2018-12-10T07:35:00.315Z,39.76
2018-12-10T07:36:00.780Z,39.75
2018-12-10T07:37:01.247Z,39.78
2018-12-10T07:38:01.709Z,39.73
2018-12-10T07:39:02.173Z,39.71
2018-12-10T07:40:02.637Z,39.71
2018-12-10T07:41:03.105Z,39.72
2018-12-10T07:42:03.566Z,39.74
2018-12-10T07:43:04.029Z,39.76
2018-12-10T07:44:04.495Z,39.71
2018-12-10T07:45:04.955Z,39.75
2018-12-10T07:46:05.418Z,39.73
2018-12-10T07:47:05.883Z,39.70
2018-12-10T07:48:06.397Z,39.67
2018-12-10T07:49:06.810Z,39.73
2018-12-10T07:50:07.275Z,39.72
2018-12-10T07:51:07.738Z,39.74
2018-12-10T07:52:08.201Z,39.73
2018-12-10T07:53:08.665Z,39.71
2018-12-10T07:54:09.129Z,39.71
2018-12-10T07:55:09.594Z,39.71
2018-12-10T07:56:10.058Z,39.72
2018-12-10T07:57:10.520Z,39.71
2018-12-10T07:58:10.985Z,39.74
2018-12-10T07:59:11.446Z,39.75
2018-12-10T08:00:11.914Z,39.74
2018-12-10T08:01:12.374Z,39.77
2018-12-10T08:02:12.837Z,39.76
2018-12-10T08:03:13.306Z,39.75
2018-12-10T08:04:13.767Z,39.78
2018-12-10T08:05:14.229Z,39.76
2018-12-10T08:06:14.693Z,39.77
2018-12-10T08:07:15.156Z,39.72
2018-12-10T08:08:15.620Z,39.69
2018-12-10T08:09:16.085Z,39.69
2018-12-10T08:10:16.547Z,39.66
2018-12-10T08:11:17.011Z,39.73
2018-12-10T08:12:17.477Z,39.71
2018-12-10T08:13:17.938Z,39.70
2018-12-10T08:14:18.401Z,39.74
2018-12-10T08:15:18.864Z,39.75
2018-12-10T08:16:19.330Z,39.73
2018-12-10T08:17:19.794Z,39.71
2018-12-10T08:18:20.255Z,39.71
2018-12-10T08:19:20.720Z,39.71
2018-12-10T08:20:21.184Z,39.70
2018-12-10T08:21:21.851Z,39.70
2018-12-10T08:22:22.111Z,39.71
2018-12-10T08:23:22.672Z,39.71
2018-12-10T08:24:23.038Z,39.73
2018-12-10T08:25:23.503Z,39.70
2018-12-10T08:26:23.967Z,39.71
2018-12-10T08:27:24.430Z,39.68
2018-12-10T08:28:24.894Z,39.68
2018-12-10T08:29:25.361Z,39.69
2018-12-10T08:30:25.818Z,39.66
2018-12-10T08:31:26.283Z,39.68
2018-12-10T08:32:26.748Z,39.73
2018-12-10T08:33:27.283Z,39.78
2018-12-10T08:34:27.674Z,39.79
2018-12-10T08:35:28.136Z,39.77
2018-12-10T08:36:28.600Z,39.82
2018-12-10T08:37:29.064Z,39.84
2018-12-10T08:38:29.527Z,39.85
2018-12-10T08:39:29.991Z,39.87
2018-12-10T08:40:30.454Z,39.88
2018-12-10T08:41:30.919Z,39.87
2018-12-10T08:42:31.382Z,39.85
2018-12-10T08:43:31.846Z,39.82
2018-12-10T08:44:32.312Z,39.80
2018-12-10T08:45:32.773Z,39.83
2018-12-10T08:46:33.237Z,39.83
2018-12-10T08:47:33.697Z,39.84
2018-12-10T08:48:34.162Z,39.84
2018-12-10T08:49:34.629Z,39.80
2018-12-10T08:50:35.088Z,39.83
2018-12-10T08:51:35.552Z,39.87
2018-12-10T08:52:36.015Z,39.89
2018-12-10T08:53:36.481Z,39.89
2018-12-10T08:54:36.941Z,39.82
2018-12-10T08:55:37.408Z,39.83
2018-12-10T08:56:37.873Z,39.81
2018-12-10T08:57:38.333Z,39.80
2018-12-10T08:58:38.851Z,39.76
2018-12-10T08:59:39.262Z,39.81
2018-12-10T09:00:39.724Z,39.75
2018-12-10T09:01:40.188Z,39.77
2018-12-10T09:02:40.650Z,39.80
2018-12-10T09:03:41.215Z,39.83
2018-12-10T09:04:41.576Z,39.84
2018-12-10T09:05:42.042Z,39.87
2018-12-10T09:06:42.504Z,39.88
2018-12-10T09:07:42.969Z,39.85
2018-12-10T09:08:43.431Z,39.88
2018-12-10T09:09:43.895Z,39.88
2018-12-10T09:10:44.362Z,39.89
2018-12-10T09:11:44.820Z,39.90
2018-12-10T09:12:47.171Z,39.89
2018-12-10T09:13:45.962Z,39.88
2018-12-10T09:14:46.210Z,39.85
2018-12-10T09:15:46.674Z,39.81
2018-12-10T09:16:47.140Z,39.74
2018-12-10T09:17:47.602Z,39.76
2018-12-10T09:18:48.114Z,39.74
2018-12-10T09:19:48.528Z,39.72
2018-12-10T09:21:49.454Z,39.72
2018-12-10T09:22:50.120Z,39.73
2018-12-10T09:23:50.382Z,39.66
2018-12-10T09:24:50.847Z,39.65
2018-12-10T09:25:51.307Z,39.63
2018-12-10T09:26:51.787Z,39.61
2018-12-10T09:27:52.235Z,39.65
2018-12-10T09:28:52.699Z,39.67
2018-12-10T09:29:53.161Z,39.66
2018-12-10T09:30:53.652Z,39.63
2018-12-10T09:31:54.089Z,39.64
2018-12-10T09:32:54.551Z,39.63
2018-12-10T09:33:55.015Z,39.63
2018-12-10T09:34:55.476Z,39.59
2018-12-10T09:35:55.941Z,39.59
2018-12-10T09:36:56.406Z,39.60
2018-12-10T09:37:56.867Z,39.58
2018-12-10T09:38:57.485Z,39.54
2018-12-10T09:39:57.794Z,39.54
2018-12-10T09:40:58.264Z,39.55
2018-12-10T09:41:58.721Z,39.55
2018-12-10T09:42:59.182Z,39.54
2018-12-10T09:43:59.646Z,39.50
2018-12-10T09:45:00.112Z,39.53
2018-12-10T09:46:00.574Z,39.52
2018-12-10T09:47:01.037Z,39.49
2018-12-10T09:48:01.500Z,39.51
2018-12-10T09:49:01.976Z,39.53
2018-12-10T09:50:02.425Z,39.48
2018-12-10T09:51:02.888Z,39.50
2018-12-10T09:52:03.359Z,39.44
2018-12-10T09:53:03.822Z,39.49
2018-12-10T09:54:04.329Z,39.42
2018-12-10T09:55:04.746Z,39.44
2018-12-10T09:56:05.210Z,39.39
2018-12-10T09:57:05.669Z,39.45
2018-12-10T09:58:06.132Z,39.42
2018-12-10T09:59:06.595Z,39.39
2018-12-10T10:00:07.059Z,39.37
2018-12-10T10:01:07.523Z,39.37
2018-12-10T10:02:12.238Z,39.39
2018-12-10T10:03:08.449Z,39.35
2018-12-10T10:04:08.913Z,39.35
2018-12-10T10:05:09.376Z,39.37
2018-12-10T10:06:09.840Z,39.37
2018-12-10T10:07:10.302Z,39.35
2018-12-10T10:08:10.766Z,39.35
2018-12-10T10:09:11.228Z,39.35
2018-12-10T10:10:11.694Z,39.36
2018-12-10T10:11:12.154Z,39.34
2018-12-10T10:12:12.620Z,39.31
2018-12-10T10:13:13.082Z,39.35
2018-12-10T10:14:13.546Z,39.35
2018-12-10T10:15:14.013Z,39.35
2018-12-10T10:16:14.474Z,39.33
2018-12-10T10:17:14.936Z,39.33
2018-12-10T10:18:15.403Z,39.32
2018-12-10T10:20:16.325Z,39.37
2018-12-10T10:21:16.794Z,39.37
2018-12-10T10:22:17.256Z,39.35
2018-12-10T10:23:17.716Z,39.38
2018-12-10T10:24:18.179Z,39.34
2018-12-10T10:25:18.643Z,39.32
2018-12-10T10:26:19.108Z,39.30
2018-12-10T10:27:19.568Z,39.32
2018-12-10T10:28:20.032Z,39.34
2018-12-10T10:29:20.496Z,39.31
2018-12-10T10:30:20.960Z,39.25
2018-12-10T10:31:21.425Z,39.30
2018-12-10T10:32:21.887Z,39.29
2018-12-10T10:33:22.352Z,39.32
2018-12-10T10:34:22.863Z,39.28
2018-12-10T10:35:23.277Z,39.30
2018-12-10T10:36:23.743Z,39.27
2018-12-10T10:37:24.205Z,39.24
2018-12-10T10:38:24.667Z,39.27
2018-12-10T10:39:25.128Z,39.26
2018-12-10T10:40:25.593Z,39.25
2018-12-10T10:41:31.299Z,39.26
2018-12-10T10:42:26.521Z,39.26
2018-12-10T10:43:26.984Z,39.26
2018-12-10T10:44:27.446Z,39.31
2018-12-10T10:45:34.684Z,39.39
2018-12-10T10:46:28.374Z,39.37
2018-12-10T10:47:28.837Z,39.36
2018-12-10T10:48:29.301Z,39.35
2018-12-10T10:49:29.765Z,39.35
2018-12-10T10:50:30.231Z,39.34
2018-12-10T10:51:30.690Z,39.34
2018-12-10T10:52:33.324Z,39.39
2018-12-10T10:53:31.616Z,39.36
2018-12-10T10:54:32.079Z,39.37
2018-12-10T10:55:32.542Z,39.40
2018-12-10T10:56:33.008Z,39.38
2018-12-10T10:57:33.473Z,39.37
2018-12-10T10:58:33.936Z,39.36
2018-12-10T10:59:34.396Z,39.33
2018-12-10T11:00:34.859Z,39.30
2018-12-10T11:01:35.326Z,39.30
2018-12-10T11:02:35.788Z,39.33
2018-12-10T11:03:36.253Z,39.32
2018-12-10T11:04:37.568Z,39.30
2018-12-10T11:05:37.179Z,39.30
2018-12-10T11:06:37.641Z,39.32
2018-12-10T11:07:38.103Z,39.29
2018-12-10T11:08:38.566Z,39.23
2018-12-10T11:09:39.083Z,39.24
2018-12-10T11:10:39.493Z,39.21
2018-12-10T11:11:39.957Z,39.24
2018-12-10T11:12:40.421Z,39.21
2018-12-10T11:13:40.884Z,39.23
2018-12-10T11:14:41.350Z,39.21
2018-12-10T11:15:41.812Z,39.22
2018-12-10T11:16:42.276Z,39.20
2018-12-10T11:17:42.739Z,39.20
2018-12-10T11:18:43.201Z,39.25
2018-12-10T11:19:43.744Z,39.22
2018-12-10T11:20:44.128Z,39.25
2018-12-10T11:21:44.592Z,39.24
2018-12-10T11:22:45.057Z,39.30
2018-12-10T11:23:45.517Z,39.33
2018-12-10T11:24:45.981Z,39.32
2018-12-10T11:25:46.445Z,39.27
2018-12-10T11:26:46.908Z,39.29
2018-12-10T11:27:47.374Z,39.27
2018-12-10T11:28:47.841Z,39.24
2018-12-10T11:29:48.300Z,39.31
2018-12-10T11:30:48.763Z,39.29
2018-12-10T11:31:49.228Z,39.31
2018-12-10T11:32:49.689Z,39.33
2018-12-10T11:33:50.152Z,39.35
2018-12-10T11:34:50.667Z,39.40
2018-12-10T11:35:51.080Z,39.41
2018-12-10T11:36:51.544Z,39.43
2018-12-10T11:37:52.005Z,39.43
2018-12-10T11:38:57.970Z,39.41
2018-12-10T11:39:52.981Z,39.46
2018-12-10T11:40:53.395Z,39.45
2018-12-10T11:41:53.861Z,39.43
2018-12-10T11:42:54.323Z,39.39
2018-12-10T11:43:54.789Z,39.41
2018-12-10T11:44:55.349Z,39.36
2018-12-10T11:45:55.715Z,39.41
2018-12-10T11:46:56.204Z,39.39
2018-12-10T11:47:56.639Z,39.37
2018-12-10T11:48:57.102Z,39.37
2018-12-10T11:49:57.618Z,39.34
2018-12-10T11:50:58.030Z,39.31
2018-12-10T11:51:58.516Z,39.22
2018-12-10T11:52:58.956Z,39.24
2018-12-10T11:53:59.420Z,39.23
2018-12-10T11:54:59.884Z,39.24
2018-12-10T11:56:00.346Z,39.19
2018-12-10T11:57:00.809Z,39.17
2018-12-10T11:58:01.276Z,39.17
2018-12-10T11:59:01.736Z,39.11
2018-12-10T12:00:02.199Z,39.08
2018-12-10T12:01:02.664Z,39.15
2018-12-10T12:02:03.126Z,39.10
2018-12-10T12:03:03.592Z,39.14
2018-12-10T12:04:04.052Z,39.10
2018-12-10T12:05:04.517Z,39.09
2018-12-10T12:06:04.980Z,39.07
2018-12-10T12:07:05.446Z,39.13
2018-12-10T12:08:05.906Z,39.12
2018-12-10T12:09:06.372Z,39.12
2018-12-10T12:10:06.841Z,39.11
2018-12-10T12:11:07.298Z,39.11
2018-12-10T12:12:07.965Z,39.12
2018-12-10T12:13:08.227Z,39.12
2018-12-10T12:14:08.691Z,39.09
2018-12-10T12:15:09.152Z,39.06
2018-12-10T12:16:09.614Z,39.07
2018-12-10T12:17:10.078Z,39.07
2018-12-10T12:18:10.543Z,39.08
2018-12-10T12:19:11.665Z,39.09
2018-12-10T12:20:11.468Z,39.11
2018-12-10T12:21:11.935Z,39.07
2018-12-10T12:22:12.399Z,39.05
2018-12-10T12:23:12.862Z,39.09
2018-12-10T12:24:13.326Z,39.04
2018-12-10T12:25:13.939Z,39.05
2018-12-10T12:26:14.253Z,39.06
2018-12-10T12:27:14.713Z,39.03
2018-12-10T12:28:15.182Z,39.06
2018-12-10T12:29:15.644Z,39.03
2018-12-10T12:30:16.104Z,39.03
2018-12-10T12:31:16.570Z,39.05
2018-12-10T12:32:17.031Z,39.02
2018-12-10T12:33:17.494Z,39.03
2018-12-10T12:34:17.965Z,39.01
2018-12-10T12:35:18.420Z,39.03
2018-12-10T12:36:18.886Z,39.03
2018-12-10T12:37:19.348Z,39.00
2018-12-10T12:38:19.811Z,39.00
2018-12-10T12:39:20.278Z,39.00
2018-12-10T12:40:20.739Z,38.98
2018-12-10T12:41:21.205Z,38.99
2018-12-10T12:42:21.666Z,38.97
2018-12-10T12:43:22.133Z,38.99
2018-12-10T12:44:22.592Z,38.97
2018-12-10T12:45:23.057Z,39.01
2018-12-10T12:46:23.520Z,39.04
2018-12-10T12:47:23.984Z,39.00
2018-12-10T12:48:24.448Z,39.00
2018-12-10T12:49:25.016Z,38.99
2018-12-10T12:50:25.376Z,38.99
2018-12-10T12:51:25.838Z,39.01
2018-12-10T12:52:26.303Z,39.01
2018-12-10T12:53:26.764Z,39.02
2018-12-10T12:54:27.230Z,39.06
2018-12-10T12:55:27.692Z,39.01
2018-12-10T12:56:28.155Z,39.00
2018-12-10T12:57:28.620Z,39.00
2018-12-10T12:58:29.082Z,39.03
2018-12-10T12:59:29.550Z,38.99
2018-12-10T13:00:30.010Z,39.07